Time;durP1;ratioP1;P1;durP2;ratioP2;P2;SDS_P1;SDS_P2;PMS_P1;PMS_P2;Temp;Humidity;BMP_temperature;BMP_pressure;BME280_temperature;BME280_humidity;BME280_pressure;Samples;Min_cycle;Max_cycle;Signal;HPM_P1;HPM_P2
2021/12/10 00:00:57;;;;;;;1.75;0.95;;;;;;;;;;5012455;28;20030;-60
2021/12/10 00:03:25;;;;;;;2.33;1.00;;;;;;;;;;5013114;28;20057;-60
2021/12/10 00:05:53;;;;;;;3.03;0.90;;;;;;;;;;5011963;28;20030;-61
2021/12/10 00:08:19;;;;;;;1.73;0.70;;;;;;;;;;5012710;28;20061;-60
2021/12/10 00:10:47;;;;;;;2.17;0.70;;;;;;;;;;5012197;28;20097;-60
2021/12/10 00:13:13;;;;;;;1.20;0.75;;;;;;;;;;5012484;28;20029;-60
2021/12/10 00:15:40;;;;;;;1.10;0.93;;;;;;;;;;5012066;28;20134;-60
2021/12/10 00:18:08;;;;;;;1.10;0.50;;;;;;;;;;5012243;28;20018;-57
2021/12/10 00:20:36;;;;;;;2.75;1.02;;;;;;;;;;5011644;28;20022;-60
2021/12/10 00:23:08;;;;;;;1.27;0.70;;;;;;;;;;5012379;28;20510;-59
2021/12/10 00:25:36;;;;;;;;;;;;;;;;;;5012225;28;20088;-60
2021/12/10 00:28:13;;;;;;;1.67;0.70;;;;;;;;;;5012038;28;19917;-60
2021/12/10 00:30:54;;;;;;;1.85;0.90;;;;;;;;;;5010940;28;20025;-59
2021/12/10 00:33:24;;;;;;;1.00;0.80;;;;;;;;;;5011886;28;20030;-66
2021/12/10 00:35:50;;;;;;;2.10;1.10;;;;;;;;;;5011863;28;20044;-59
2021/12/10 00:38:16;;;;;;;2.17;0.85;;;;;;;;;;5011939;28;20029;-59
2021/12/10 00:40:43;;;;;;;0.93;0.63;;;;;;;;;;5011768;28;20518;-59
2021/12/10 00:43:09;;;;;;;1.23;0.68;;;;;;;;;;5012118;28;20022;-59
2021/12/10 00:45:35;;;;;;;1.55;0.80;;;;;;;;;;5011322;28;20101;-59
2021/12/10 00:48:02;;;;;;;2.08;0.90;;;;;;;;;;5012266;28;20053;-62
2021/12/10 00:50:37;;;;;;;1.35;0.80;;;;;;;;;;5011515;28;20030;-71
2021/12/10 00:53:03;;;;;;;1.30;0.70;;;;;;;;;;5011392;28;20022;-59
2021/12/10 00:55:29;;;;;;;0.85;0.80;;;;;;;;;;5011123;28;20493;-70
2021/12/10 00:57:56;;;;;;;2.35;0.85;;;;;;;;;;5012465;28;20434;-58
2021/12/10 01:00:24;;;;;;;2.95;1.00;;;;;;;;;;5010692;28;20382;-58
2021/12/10 01:02:51;;;;;;;2.25;0.93;;;;;;;;;;5012398;28;20034;-59
2021/12/10 01:05:18;;;;;;;2.10;0.80;;;;;;;;;;5011927;28;20026;-60
2021/12/10 01:07:45;;;;;;;1.27;1.00;;;;;;;;;;5010074;28;20026;-58
2021/12/10 01:10:17;;;;;;;1.63;0.85;;;;;;;;;;5011866;28;20076;-59
2021/12/10 01:12:45;;;;;;;1.48;0.70;;;;;;;;;;5011469;28;20040;-58
2021/12/10 01:28:36;;;;;;;1.85;0.63;;;;;;;;;;5010406;28;20117;-59
2021/12/10 01:31:03;;;;;;;2.00;0.95;;;;;;;;;;5012092;28;20025;-59
2021/12/10 01:33:29;;;;;;;1.25;0.82;;;;;;;;;;5011669;28;20037;-70
2021/12/10 01:35:57;;;;;;;0.88;0.70;;;;;;;;;;5010301;28;20022;-59
2021/12/10 01:38:23;;;;;;;2.13;0.65;;;;;;;;;;5011493;28;20033;-59
2021/12/10 01:40:52;;;;;;;1.35;0.60;;;;;;;;;;5011131;28;20030;-59
2021/12/10 01:43:25;;;;;;;0.98;0.60;;;;;;;;;;5011810;28;20083;-59
2021/12/10 01:46:11;;;;;;;1.00;0.70;;;;;;;;;;5010741;28;20029;-61
2021/12/10 01:48:39;;;;;;;1.10;0.65;;;;;;;;;;5010657;28;20034;-59
2021/12/10 01:51:06;;;;;;;1.75;0.75;;;;;;;;;;5011748;28;20029;-59
2021/12/10 01:53:34;;;;;;;1.10;0.50;;;;;;;;;;5010465;28;20065;-63
2021/12/10 01:56:02;;;;;;;2.22;0.90;;;;;;;;;;5011401;28;20046;-59
2021/12/10 01:58:30;;;;;;;1.38;0.77;;;;;;;;;;5011177;28;20036;-59
2021/12/10 02:00:58;;;;;;;1.98;0.95;;;;;;;;;;5010972;28;20048;-59
2021/12/10 02:03:25;;;;;;;1.95;1.15;;;;;;;;;;5011665;28;20483;-59
2021/12/10 02:05:51;;;;;;;1.35;0.52;;;;;;;;;;5012499;28;20610;-60
2021/12/10 02:08:17;;;;;;;0.80;0.63;;;;;;;;;;5014097;28;20100;-59
2021/12/10 02:10:43;;;;;;;1.20;0.70;;;;;;;;;;5014581;28;20024;-59
2021/12/10 02:13:09;;;;;;;1.25;0.70;;;;;;;;;;5014991;28;20030;-59
2021/12/10 02:15:36;;;;;;;1.92;0.90;;;;;;;;;;5014120;28;20038;-59
2021/12/10 02:18:02;;;;;;;2.10;0.88;;;;;;;;;;5014296;28;20033;-59
2021/12/10 02:20:38;;;;;;;2.00;0.70;;;;;;;;;;5014412;28;20105;-67
2021/12/10 02:23:06;;;;;;;1.75;1.17;;;;;;;;;;5014741;28;20080;-59
2021/12/10 02:25:33;;;;;;;0.95;0.70;;;;;;;;;;5013887;28;20471;-70
2021/12/10 02:27:59;;;;;;;1.13;0.63;;;;;;;;;;5014260;28;20030;-59
2021/12/10 02:30:26;;;;;;;1.25;0.73;;;;;;;;;;4995012;28;20030;-59
2021/12/10 02:32:52;;;;;;;1.00;0.60;;;;;;;;;;4994303;28;20026;-59
2021/12/10 02:35:19;;;;;;;1.80;0.68;;;;;;;;;;4995067;28;20076;-59
2021/12/10 02:37:46;;;;;;;0.80;0.65;;;;;;;;;;4994271;28;20026;-64
2021/12/10 02:40:14;;;;;;;1.38;0.77;;;;;;;;;;5013287;28;20034;-59
2021/12/10 02:42:40;;;;;;;3.08;0.80;;;;;;;;;;5013620;28;20470;-59
2021/12/10 02:45:08;;;;;;;0.98;0.70;;;;;;;;;;5014029;28;20536;-60
2021/12/10 02:47:35;;;;;;;1.67;0.70;;;;;;;;;;5013384;28;20087;-61
2021/12/10 02:50:01;;;;;;;1.38;1.00;;;;;;;;;;5014335;28;20041;-58
2021/12/10 02:52:27;;;;;;;1.05;0.50;;;;;;;;;;5014197;28;20116;-58
2021/12/10 02:54:54;;;;;;;1.67;0.82;;;;;;;;;;5013548;28;20038;-60
2021/12/10 02:57:20;;;;;;;1.35;0.60;;;;;;;;;;5014226;28;20042;-58
2021/12/10 02:59:47;;;;;;;2.13;0.77;;;;;;;;;;5012877;28;20479;-61
2021/12/10 03:02:15;;;;;;;1.45;0.70;;;;;;;;;;5012586;28;20481;-59
2021/12/10 03:04:41;;;;;;;3.58;0.70;;;;;;;;;;5012415;28;20034;-59
2021/12/10 03:07:12;;;;;;;1.15;0.43;;;;;;;;;;5013833;28;20113;-60
2021/12/10 03:09:39;;;;;;;1.47;1.00;;;;;;;;;;5013106;28;20060;-59
2021/12/10 03:12:05;;;;;;;1.75;0.85;;;;;;;;;;5013734;28;20018;-59
2021/12/10 03:14:35;;;;;;;2.30;0.70;;;;;;;;;;5013911;28;20029;-70
2021/12/10 03:17:04;;;;;;;1.10;0.63;;;;;;;;;;5013034;28;20018;-60
2021/12/10 03:19:30;;;;;;;1.63;0.60;;;;;;;;;;5011699;28;20045;-59
2021/12/10 03:21:56;;;;;;;1.75;0.60;;;;;;;;;;5012756;28;20030;-59
2021/12/10 03:24:25;;;;;;;2.25;1.27;;;;;;;;;;5013766;28;20034;-59
2021/12/10 03:26:52;;;;;;;2.45;0.95;;;;;;;;;;5013050;28;20034;-59
2021/12/10 03:29:22;;;;;;;2.83;0.80;;;;;;;;;;5013268;28;20033;-59
2021/12/10 03:31:49;;;;;;;0.60;0.40;;;;;;;;;;5012766;28;20033;-59
2021/12/10 03:34:15;;;;;;;2.05;1.10;;;;;;;;;;5013484;28;20061;-59
2021/12/10 03:36:45;;;;;;;1.25;0.60;;;;;;;;;;5012747;28;20106;-60
2021/12/10 03:39:12;;;;;;;1.48;0.88;;;;;;;;;;5013379;28;20041;-58
2021/12/10 03:41:39;;;;;;;1.52;0.88;;;;;;;;;;5012678;28;20030;-60
2021/12/10 03:44:05;;;;;;;1.15;0.77;;;;;;;;;;5013359;28;20029;-59
2021/12/10 03:46:31;;;;;;;2.28;0.75;;;;;;;;;;5013286;28;20038;-60
2021/12/10 03:48:59;;;;;;;2.97;1.05;;;;;;;;;;5006917;28;20030;-59
2021/12/10 03:51:25;;;;;;;0.98;0.70;;;;;;;;;;5001882;28;20102;-59
2021/12/10 03:53:52;;;;;;;1.30;0.60;;;;;;;;;;5004849;28;20048;-59
2021/12/10 03:56:19;;;;;;;1.33;0.65;;;;;;;;;;5003389;28;20061;-59
2021/12/10 03:58:46;;;;;;;2.40;0.85;;;;;;;;;;5003875;28;20383;-59
2021/12/10 04:01:13;;;;;;;1.30;0.80;;;;;;;;;;5002681;28;20376;-59
2021/12/10 04:03:41;;;;;;;2.25;0.70;;;;;;;;;;4999520;28;20471;-59
2021/12/10 04:06:07;;;;;;;0.85;0.75;;;;;;;;;;5002893;28;20026;-60
2021/12/10 04:08:34;;;;;;;1.40;0.95;;;;;;;;;;5001421;28;20044;-69
2021/12/10 04:11:01;;;;;;;1.95;0.75;;;;;;;;;;5008192;28;20058;-59
2021/12/10 04:13:27;;;;;;;1.52;0.88;;;;;;;;;;5001773;28;20029;-59
2021/12/10 04:15:53;;;;;;;0.77;0.50;;;;;;;;;;5000789;28;20623;-64
2021/12/10 04:18:19;;;;;;;1.10;0.60;;;;;;;;;;5006214;28;20026;-59
2021/12/10 04:20:46;;;;;;;2.88;0.88;;;;;;;;;;5001041;28;20541;-59
2021/12/10 04:23:18;;;;;;;1.40;0.82;;;;;;;;;;5001730;28;20471;-59
2021/12/10 04:25:44;;;;;;;1.00;0.73;;;;;;;;;;5000446;28;20145;-61
2021/12/10 04:28:12;;;;;;;1.05;0.57;;;;;;;;;;5004030;28;20031;-59
2021/12/10 04:30:40;;;;;;;1.02;0.57;;;;;;;;;;5002098;28;20427;-60
2021/12/10 04:33:12;;;;;;;1.83;0.80;;;;;;;;;;5001424;28;20028;-60
2021/12/10 04:35:38;;;;;;;1.60;0.80;;;;;;;;;;5000283;28;20026;-60
2021/12/10 04:38:05;;;;;;;1.20;0.55;;;;;;;;;;5003146;28;20100;-60
2021/12/10 04:40:31;;;;;;;1.15;0.50;;;;;;;;;;5002934;28;20019;-59
2021/12/10 04:42:57;;;;;;;2.67;0.80;;;;;;;;;;5004529;28;20037;-63
2021/12/10 04:45:24;;;;;;;1.92;0.75;;;;;;;;;;5000326;28;20030;-61
2021/12/10 04:47:50;;;;;;;1.52;0.70;;;;;;;;;;5001429;28;20041;-59
2021/12/10 04:50:18;;;;;;;2.72;0.80;;;;;;;;;;5001686;28;20093;-59
2021/12/10 04:52:44;;;;;;;1.35;0.82;;;;;;;;;;5001102;28;20041;-63
2021/12/10 04:55:11;;;;;;;0.98;0.80;;;;;;;;;;5001779;28;20380;-59
2021/12/10 04:57:37;;;;;;;2.03;0.80;;;;;;;;;;5003661;28;20050;-70
2021/12/10 05:00:05;;;;;;;1.27;0.60;;;;;;;;;;5006052;28;20136;-62
2021/12/10 05:02:33;;;;;;;1.08;0.52;;;;;;;;;;5002821;28;20110;-61
2021/12/10 05:05:00;;;;;;;2.47;1.20;;;;;;;;;;5003686;28;20101;-61
2021/12/10 05:07:30;;;;;;;1.92;0.90;;;;;;;;;;5005835;28;20029;-61
2021/12/10 05:09:56;;;;;;;1.35;0.70;;;;;;;;;;5001278;28;20045;-60
2021/12/10 05:12:22;;;;;;;1.52;1.10;;;;;;;;;;5003213;28;20034;-59
2021/12/10 05:14:48;;;;;;;1.02;0.70;;;;;;;;;;5004528;28;20026;-59
2021/12/10 05:17:14;;;;;;;1.65;1.15;;;;;;;;;;5000957;28;20033;-64
2021/12/10 05:19:42;;;;;;;2.15;1.00;;;;;;;;;;5003149;28;20026;-59
2021/12/10 05:22:09;;;;;;;1.40;0.65;;;;;;;;;;5003440;28;20427;-59
2021/12/10 05:24:35;;;;;;;1.27;0.75;;;;;;;;;;4999924;28;20022;-70
2021/12/10 05:27:01;;;;;;;1.52;0.85;;;;;;;;;;5002064;28;20030;-59
2021/12/10 05:29:28;;;;;;;1.35;0.90;;;;;;;;;;5001275;28;20033;-59
2021/12/10 05:31:56;;;;;;;1.58;0.90;;;;;;;;;;5001044;28;20243;-63
2021/12/10 05:34:22;;;;;;;1.70;0.80;;;;;;;;;;5000525;28;20047;-59
2021/12/10 05:36:48;;;;;;;1.58;0.73;;;;;;;;;;5010700;28;20022;-63
2021/12/10 05:39:15;;;;;;;1.35;0.77;;;;;;;;;;5011789;28;20057;-60
2021/12/10 05:41:41;;;;;;;2.55;0.93;;;;;;;;;;5014573;28;20113;-60
2021/12/10 05:44:07;;;;;;;1.52;0.85;;;;;;;;;;5015261;28;20022;-60
2021/12/10 05:46:34;;;;;;;0.98;0.68;;;;;;;;;;5015163;28;20116;-68
2021/12/10 05:49:00;;;;;;;3.92;0.60;;;;;;;;;;5014191;28;20045;-60
2021/12/10 05:51:26;;;;;;;5.38;0.60;;;;;;;;;;5014861;28;20379;-62
2021/12/10 05:53:52;;;;;;;3.17;1.23;;;;;;;;;;5013651;28;20045;-59
2021/12/10 05:56:18;;;;;;;8.95;1.20;;;;;;;;;;5013834;28;20042;-59
2021/12/10 05:58:45;;;;;;;2.88;1.25;;;;;;;;;;5014564;28;20065;-59
2021/12/10 06:01:13;;;;;;;2.42;0.98;;;;;;;;;;5015146;28;20037;-58
2021/12/10 06:03:41;;;;;;;2.10;0.70;;;;;;;;;;5014160;28;20022;-59
2021/12/10 06:06:07;;;;;;;2.15;0.90;;;;;;;;;;5014707;28;20030;-59
2021/12/10 06:08:33;;;;;;;1.48;0.77;;;;;;;;;;5014623;28;20033;-58
2021/12/10 06:11:00;;;;;;;4.72;0.93;;;;;;;;;;5014658;28;20030;-58
2021/12/10 06:13:26;;;;;;;5.50;1.38;;;;;;;;;;5015080;28;20030;-57
2021/12/10 06:15:53;;;;;;;5.20;1.48;;;;;;;;;;5014289;28;20430;-58
2021/12/10 06:18:19;;;;;;;3.50;0.70;;;;;;;;;;5014791;28;20029;-59
2021/12/10 06:20:47;;;;;;;5.63;1.75;;;;;;;;;;5012581;28;20026;-55
2021/12/10 06:23:13;;;;;;;5.85;1.42;;;;;;;;;;5014696;28;20356;-58
2021/12/10 06:25:40;;;;;;;7.70;1.92;;;;;;;;;;5002865;28;20030;-61
2021/12/10 06:28:07;;;;;;;7.13;1.67;;;;;;;;;;5013479;28;20038;-55
2021/12/10 06:30:35;;;;;;;3.42;1.40;;;;;;;;;;5014156;28;20026;-53
2021/12/10 06:33:03;;;;;;;7.57;1.02;;;;;;;;;;5013640;28;20052;-55
2021/12/10 06:35:30;;;;;;;10.60;1.65;;;;;;;;;;5013934;28;20490;-51
2021/12/10 06:37:57;;;;;;;4.78;1.25;;;;;;;;;;5013231;28;20032;-60
2021/12/10 06:40:24;;;;;;;5.85;1.17;;;;;;;;;;5014520;28;20068;-60
2021/12/10 06:42:50;;;;;;;5.13;1.33;;;;;;;;;;5012887;28;20573;-60
2021/12/10 06:45:18;;;;;;;3.95;1.40;;;;;;;;;;5014149;28;20030;-60
2021/12/10 06:47:48;;;;;;;5.05;1.65;;;;;;;;;;5013184;28;20387;-60
2021/12/10 06:50:22;;;;;;;3.80;1.13;;;;;;;;;;5013159;28;20064;-61
2021/12/10 06:52:48;;;;;;;7.82;1.30;;;;;;;;;;5012356;28;20030;-59
2021/12/10 06:55:15;;;;;;;4.63;1.40;;;;;;;;;;5005052;28;20034;-59
2021/12/10 06:57:41;;;;;;;10.20;2.22;;;;;;;;;;5014813;28;20137;-60
2021/12/10 07:00:09;;;;;;;6.22;1.15;;;;;;;;;;5014985;28;20026;-59
2021/12/10 07:02:36;;;;;;;3.67;0.90;;;;;;;;;;5013689;28;20474;-59
2021/12/10 07:05:02;;;;;;;5.30;1.30;;;;;;;;;;5013155;28;20470;-60
2021/12/10 07:07:29;;;;;;;5.18;1.60;;;;;;;;;;5013806;28;20088;-59
2021/12/10 07:09:55;;;;;;;2.50;1.08;;;;;;;;;;5013087;28;20104;-59
2021/12/10 07:12:21;;;;;;;5.97;1.88;;;;;;;;;;5013171;28;20030;-59
2021/12/10 07:14:47;;;;;;;4.72;1.42;;;;;;;;;;5012974;28;20371;-61
2021/12/10 07:17:13;;;;;;;2.95;1.20;;;;;;;;;;5013431;28;20040;-59
2021/12/10 07:19:40;;;;;;;2.95;1.20;;;;;;;;;;5012930;28;20026;-65
2021/12/10 07:22:06;;;;;;;3.40;1.02;;;;;;;;;;5013318;28;20037;-59
2021/12/10 07:24:32;;;;;;;2.72;1.00;;;;;;;;;;5012754;28;20026;-61
2021/12/10 07:26:59;;;;;;;3.70;1.40;;;;;;;;;;5006557;28;20249;-59
2021/12/10 07:29:26;;;;;;;4.18;1.30;;;;;;;;;;5013246;28;20034;-59
2021/12/10 07:31:52;;;;;;;7.60;2.17;;;;;;;;;;5012219;28;20098;-59
2021/12/10 07:34:18;;;;;;;6.97;1.30;;;;;;;;;;5013302;28;20387;-59
2021/12/10 07:36:44;;;;;;;4.97;1.67;;;;;;;;;;5012337;28;20416;-59
2021/12/10 07:39:11;;;;;;;6.40;1.15;;;;;;;;;;5012797;28;20030;-59
2021/12/10 07:41:40;;;;;;;2.78;0.77;;;;;;;;;;5012845;28;20426;-64
2021/12/10 07:44:07;;;;;;;2.83;0.90;;;;;;;;;;5012740;28;20030;-59
2021/12/10 07:46:34;;;;;;;3.50;1.20;;;;;;;;;;5012722;28;20026;-59
2021/12/10 07:49:01;;;;;;;4.35;1.33;;;;;;;;;;5011840;28;20030;-59
2021/12/10 07:51:29;;;;;;;3.17;0.98;;;;;;;;;;5012685;28;20467;-59
2021/12/10 07:53:57;;;;;;;2.22;1.10;;;;;;;;;;5011822;28;20088;-59
2021/12/10 07:56:24;;;;;;;2.50;1.05;;;;;;;;;;5009050;28;20446;-60
2021/12/10 07:58:50;;;;;;;2.63;1.08;;;;;;;;;;5008961;28;20040;-60
2021/12/10 08:01:17;;;;;;;1.65;0.90;;;;;;;;;;5012342;28;20487;-60
2021/12/10 08:03:44;;;;;;;3.08;1.20;;;;;;;;;;5011437;28;20049;-62
2021/12/10 08:06:10;;;;;;;4.13;1.05;;;;;;;;;;5012246;28;20018;-60
2021/12/10 08:08:36;;;;;;;2.53;0.90;;;;;;;;;;5012661;28;20033;-59
2021/12/10 08:11:02;;;;;;;3.88;1.75;;;;;;;;;;5011836;28;20109;-60
2021/12/10 08:13:29;;;;;;;2.22;1.10;;;;;;;;;;5012183;28;20030;-61
2021/12/10 08:15:55;;;;;;;3.30;1.02;;;;;;;;;;5010598;28;20026;-60
2021/12/10 08:18:21;;;;;;;3.03;0.95;;;;;;;;;;5012347;28;20037;-60
2021/12/10 08:20:47;;;;;;;3.17;0.90;;;;;;;;;;5011565;28;20092;-61
2021/12/10 08:23:13;;;;;;;2.72;0.88;;;;;;;;;;5012430;28;20058;-60
2021/12/10 08:25:39;;;;;;;6.07;1.10;;;;;;;;;;5010891;28;21171;-61
2021/12/10 08:28:06;;;;;;;1.88;1.20;;;;;;;;;;5010956;28;20037;-60
2021/12/10 08:30:32;;;;;;;1.70;0.70;;;;;;;;;;5012513;28;20036;-60
2021/12/10 08:32:59;;;;;;;2.72;0.80;;;;;;;;;;5011265;28;20033;-60
2021/12/10 08:35:29;;;;;;;2.05;0.75;;;;;;;;;;5012014;28;20060;-60
2021/12/10 08:37:55;;;;;;;2.88;0.93;;;;;;;;;;5011566;28;20114;-60
2021/12/10 08:40:26;;;;;;;1.60;0.68;;;;;;;;;;5012154;28;20030;-60
2021/12/10 08:42:53;;;;;;;2.17;0.80;;;;;;;;;;5011111;28;20379;-60
2021/12/10 08:45:21;;;;;;;2.13;1.00;;;;;;;;;;5011930;28;20828;-60
2021/12/10 08:47:48;;;;;;;2.30;1.30;;;;;;;;;;5010764;28;20034;-61
2021/12/10 08:50:17;;;;;;;1.60;0.98;;;;;;;;;;5012117;28;20379;-59
2021/12/10 08:52:43;;;;;;;2.85;1.45;;;;;;;;;;5011213;28;20030;-65
2021/12/10 08:55:11;;;;;;;2.75;0.90;;;;;;;;;;5010884;28;20029;-59
2021/12/10 08:57:37;;;;;;;3.42;1.00;;;;;;;;;;5011258;28;20131;-59
2021/12/10 09:00:05;;;;;;;1.08;0.73;;;;;;;;;;5011217;28;20182;-60
2021/12/10 09:02:31;;;;;;;2.33;1.13;;;;;;;;;;5009172;28;20029;-60
2021/12/10 09:04:58;;;;;;;3.45;1.10;;;;;;;;;;5010509;28;20463;-60
2021/12/10 09:07:24;;;;;;;0.93;0.70;;;;;;;;;;5011716;28;20056;-60
2021/12/10 09:09:50;;;;;;;1.30;0.60;;;;;;;;;;5010556;28;20088;-60
2021/12/10 09:12:19;;;;;;;1.63;1.00;;;;;;;;;;5011731;28;20029;-60
2021/12/10 09:14:49;;;;;;;1.83;0.88;;;;;;;;;;5010064;28;20026;-65
2021/12/10 09:17:20;;;;;;;2.50;0.90;;;;;;;;;;5015858;28;20111;-58
2021/12/10 09:19:46;;;;;;;2.20;0.93;;;;;;;;;;5015043;28;20025;-62
2021/12/10 09:22:12;;;;;;;1.65;1.00;;;;;;;;;;5015718;28;20033;-60
2021/12/10 09:24:39;;;;;;;2.05;0.65;;;;;;;;;;5013941;28;20037;-58
2021/12/10 09:27:06;;;;;;;2.20;0.80;;;;;;;;;;5007441;28;20030;-60
2021/12/10 09:29:35;;;;;;;20.15;1.40;;;;;;;;;;5013335;28;20030;-61
2021/12/10 09:32:02;;;;;;;1.65;1.08;;;;;;;;;;5006576;28;20070;-60
2021/12/10 09:34:28;;;;;;;2.70;0.88;;;;;;;;;;5015527;28;20030;-58
2021/12/10 09:36:55;;;;;;;1.15;0.80;;;;;;;;;;5014364;28;20052;-60
2021/12/10 09:39:22;;;;;;;0.95;0.60;;;;;;;;;;5015639;28;20061;-60
2021/12/10 09:41:48;;;;;;;2.17;0.98;;;;;;;;;;5014239;28;20030;-60
2021/12/10 09:44:15;;;;;;;1.20;0.73;;;;;;;;;;5015291;28;20034;-60
2021/12/10 09:46:42;;;;;;;2.38;0.73;;;;;;;;;;5014544;28;20080;-60
2021/12/10 09:49:09;;;;;;;1.63;0.80;;;;;;;;;;5013953;28;20065;-59
2021/12/10 09:51:38;;;;;;;2.47;0.80;;;;;;;;;;5014902;28;20022;-60
2021/12/10 09:54:10;;;;;;;1.30;0.63;;;;;;;;;;5013816;28;20680;-59
2021/12/10 09:56:37;;;;;;;1.35;0.60;;;;;;;;;;5013910;28;20134;-59
2021/12/10 09:59:04;;;;;;;0.90;0.73;;;;;;;;;;5014092;28;20200;-59
2021/12/10 10:01:32;;;;;;;2.22;0.63;;;;;;;;;;5014870;28;20018;-60
2021/12/10 10:04:02;;;;;;;1.08;0.75;;;;;;;;;;5013481;28;20502;-59
2021/12/10 10:06:29;;;;;;;1.98;0.70;;;;;;;;;;5014753;28;20026;-60
2021/12/10 10:08:55;;;;;;;2.55;0.80;;;;;;;;;;5013382;28;20057;-60
2021/12/10 10:11:24;;;;;;;1.33;0.88;;;;;;;;;;5014644;28;20057;-62
2021/12/10 10:13:52;;;;;;;1.25;0.50;;;;;;;;;;5013920;28;20026;-60
2021/12/10 10:16:20;;;;;;;2.03;1.02;;;;;;;;;;5014687;28;20375;-60
2021/12/10 10:18:47;;;;;;;22.95;1.55;;;;;;;;;;5013889;28;20508;-66
2021/12/10 10:21:15;;;;;;;0.90;0.60;;;;;;;;;;5014044;28;20124;-60
2021/12/10 10:23:43;;;;;;;1.25;0.60;;;;;;;;;;5015034;28;20030;-59
2021/12/10 10:26:19;;;;;;;2.88;0.68;;;;;;;;;;5011482;28;20038;-60
2021/12/10 10:28:45;;;;;;;1.48;0.60;;;;;;;;;;5014632;28;20044;-66
2021/12/10 10:31:17;;;;;;;2.13;0.70;;;;;;;;;;5013816;28;20108;-59
2021/12/10 10:33:44;;;;;;;;;;;;;;;;;;4995602;28;20470;-59
2021/12/10 10:36:18;;;;;;;1.58;0.68;;;;;;;;;;5008528;28;19909;-59
2021/12/10 10:38:47;;;;;;;0.85;0.50;;;;;;;;;;5014201;28;20026;-65
2021/12/10 10:41:14;;;;;;;0.98;0.55;;;;;;;;;;5013570;28;20545;-59
2021/12/10 10:43:40;;;;;;;2.67;0.90;;;;;;;;;;5013416;28;20034;-60
2021/12/10 10:46:06;;;;;;;1.92;0.63;;;;;;;;;;5012063;28;20018;-59
2021/12/10 10:48:32;;;;;;;2.75;0.50;;;;;;;;;;5013493;28;20474;-60
2021/12/10 10:51:09;;;;;;;1.38;0.60;;;;;;;;;;5012459;28;20105;-63
2021/12/10 10:53:44;;;;;;;1.95;0.60;;;;;;;;;;5013861;28;20033;-59
2021/12/10 10:56:14;;;;;;;2.88;1.30;;;;;;;;;;5012008;28;20042;-59
2021/12/10 10:58:43;;;;;;;0.82;0.70;;;;;;;;;;5013936;28;20041;-59
2021/12/10 11:01:24;;;;;;;2.03;0.95;;;;;;;;;;5012961;28;20032;-60
2021/12/10 11:04:00;;;;;;;2.13;0.70;;;;;;;;;;5012984;28;20080;-60
2021/12/10 11:06:31;;;;;;;3.13;0.70;;;;;;;;;;4994283;28;20061;-60
2021/12/10 11:09:17;;;;;;;2.22;0.73;;;;;;;;;;4993186;28;20022;-60
2021/12/10 11:11:48;;;;;;;1.92;0.95;;;;;;;;;;5009946;28;20034;-60
2021/12/10 11:14:21;;;;;;;1.63;0.77;;;;;;;;;;5013009;28;20030;-60
2021/12/10 11:16:48;;;;;;;0.88;0.52;;;;;;;;;;5013183;28;20037;-67
2021/12/10 11:19:18;;;;;;;0.88;0.60;;;;;;;;;;5013253;28;20030;-60
2021/12/10 11:21:49;;;;;;;1.88;0.47;;;;;;;;;;5012839;28;20032;-59
2021/12/10 11:24:31;;;;;;;0.40;0.40;;;;;;;;;;5013332;28;20030;-60
2021/12/10 11:27:00;;;;;;;0.80;0.55;;;;;;;;;;5012324;28;20056;-60
2021/12/10 11:29:30;;;;;;;0.80;0.57;;;;;;;;;;5013115;28;20030;-60
2021/12/10 11:32:01;;;;;;;1.13;0.57;;;;;;;;;;5012196;28;20038;-60
2021/12/10 11:34:40;;;;;;;1.10;0.60;;;;;;;;;;5013199;28;20033;-60
2021/12/10 11:37:06;;;;;;;0.90;0.50;;;;;;;;;;5012261;28;20030;-60
2021/12/10 11:39:44;;;;;;;0.88;0.57;;;;;;;;;;5012575;28;20435;-60
2021/12/10 11:42:30;;;;;;;4.70;1.17;;;;;;;;;;5011410;28;20783;-60
2021/12/10 11:47:49;;;;;;;4.18;1.80;;;;;;;;;;5013456;28;20117;-62
2021/12/10 11:50:17;;;;;;;3.20;1.15;;;;;;;;;;5012877;28;20032;-60
2021/12/10 11:52:43;;;;;;;3.72;1.58;;;;;;;;;;5012771;28;20101;-59
2021/12/10 11:55:10;;;;;;;4.05;1.40;;;;;;;;;;5002176;28;20157;-60
2021/12/10 11:57:40;;;;;;;5.88;1.20;;;;;;;;;;5011339;28;20042;-61
2021/12/10 12:00:12;;;;;;;8.88;1.90;;;;;;;;;;5008668;28;20030;-60
2021/12/10 12:02:55;;;;;;;4.82;1.08;;;;;;;;;;5003746;28;20029;-61
2021/12/10 12:05:24;;;;;;;7.18;1.70;;;;;;;;;;5012818;28;20105;-60
2021/12/10 12:07:51;;;;;;;6.57;1.27;;;;;;;;;;5012120;28;20097;-65
2021/12/10 12:10:22;;;;;;;3.63;1.55;;;;;;;;;;5011925;28;20022;-62
2021/12/10 12:12:52;;;;;;;4.55;1.10;;;;;;;;;;5012564;28;20025;-66
2021/12/10 12:15:41;;;;;;;3.45;1.40;;;;;;;;;;5012413;28;20030;-61
2021/12/10 12:18:16;;;;;;;4.72;1.40;;;;;;;;;;5004125;28;20866;-58
2021/12/10 12:22:12;;;;;;;11.00;2.25;;;;;;;;;;5011976;28;20533;-61
2021/12/10 12:27:14;;;;;;;3.88;1.05;;;;;;;;;;5007632;28;20052;-62
2021/12/10 12:29:48;;;;;;;7.57;1.45;;;;;;;;;;5011563;28;20034;-62
2021/12/10 12:32:19;;;;;;;6.50;1.92;;;;;;;;;;5011562;28;20483;-61
2021/12/10 12:34:45;;;;;;;4.55;1.55;;;;;;;;;;5012523;28;20463;-61
2021/12/10 12:37:12;;;;;;;2.75;1.25;;;;;;;;;;5011065;28;20708;-61
2021/12/10 12:39:38;;;;;;;5.70;1.30;;;;;;;;;;5012013;28;20084;-60
2021/12/10 12:42:07;;;;;;;6.32;1.95;;;;;;;;;;5011416;28;20414;-60
2021/12/10 12:44:35;;;;;;;5.68;1.52;;;;;;;;;;5012173;28;20030;-60
2021/12/10 12:47:12;;;;;;;3.45;1.10;;;;;;;;;;5011449;28;20225;-60
2021/12/10 12:49:52;;;;;;;4.80;1.70;;;;;;;;;;5011227;28;20021;-60
2021/12/10 12:52:36;;;;;;;5.35;1.30;;;;;;;;;;5012259;28;20026;-60
2021/12/10 12:55:02;;;;;;;3.65;1.42;;;;;;;;;;5007664;28;20088;-60
2021/12/10 12:57:40;;;;;;;6.25;1.02;;;;;;;;;;5012126;28;20050;-60
2021/12/10 13:00:08;;;;;;;2.67;1.20;;;;;;;;;;5010568;28;20041;-60
2021/12/10 13:02:34;;;;;;;2.45;0.98;;;;;;;;;;5011683;28;20029;-60
2021/12/10 13:05:00;;;;;;;6.45;1.42;;;;;;;;;;5010685;28;20030;-59
2021/12/10 13:07:28;;;;;;;5.22;1.13;;;;;;;;;;5011943;28;20030;-60
2021/12/10 13:09:57;;;;;;;3.15;1.15;;;;;;;;;;5010733;28;20080;-64
2021/12/10 13:15:01;;;;;;;3.45;1.17;;;;;;;;;;5011047;28;20041;-65
2021/12/10 13:17:30;;;;;;;3.00;1.52;;;;;;;;;;5011614;28;20022;-62
2021/12/10 13:19:59;;;;;;;4.45;1.05;;;;;;;;;;5010798;28;20435;-60
2021/12/10 13:22:26;;;;;;;4.43;1.45;;;;;;;;;;5011461;28;20107;-60
2021/12/10 13:24:54;;;;;;;3.78;1.40;;;;;;;;;;5010520;28;20029;-67
2021/12/10 13:27:22;;;;;;;1.83;0.85;;;;;;;;;;5011447;28;20041;-62
2021/12/10 13:29:48;;;;;;;7.47;1.08;;;;;;;;;;5011765;28;20069;-60
2021/12/10 13:32:15;;;;;;;1.85;0.82;;;;;;;;;;5010186;28;20784;-59
2021/12/10 13:34:41;;;;;;;3.60;0.85;;;;;;;;;;5011704;28;20056;-59
2021/12/10 13:37:08;;;;;;;6.63;2.10;;;;;;;;;;5010845;28;20026;-59
2021/12/10 13:39:35;;;;;;;3.95;1.50;;;;;;;;;;5011612;28;20164;-59
2021/12/10 13:42:01;;;;;;;3.30;0.98;;;;;;;;;;5010643;28;20407;-59
2021/12/10 13:46:55;;;;;;;4.45;1.42;;;;;;;;;;5010536;28;20124;-64
2021/12/10 13:49:21;;;;;;;1.08;0.60;;;;;;;;;;5011194;28;20041;-62
2021/12/10 13:51:49;;;;;;;4.88;1.20;;;;;;;;;;5011698;28;20371;-60
2021/12/10 13:54:19;;;;;;;2.53;0.93;;;;;;;;;;5010491;28;20029;-59
2021/12/10 13:56:52;;;;;;;1.75;0.75;;;;;;;;;;5010383;28;20210;-60
2021/12/10 13:59:22;;;;;;;4.22;0.80;;;;;;;;;;5011003;28;20026;-59
2021/12/10 14:01:49;;;;;;;6.55;1.38;;;;;;;;;;5013380;28;20032;-57
2021/12/10 14:04:23;;;;;;;4.43;1.20;;;;;;;;;;5013651;28;20033;-59
2021/12/10 14:06:49;;;;;;;6.43;1.30;;;;;;;;;;5014500;28;20529;-59
2021/12/10 14:09:16;;;;;;;5.68;0.80;;;;;;;;;;5013174;28;20037;-59
2021/12/10 14:12:02;;;;;;;3.53;0.82;;;;;;;;;;5013828;28;20045;-60
2021/12/10 14:14:30;;;;;;;3.15;0.80;;;;;;;;;;5013697;28;20014;-66
2021/12/10 14:16:58;;;;;;;2.83;1.05;;;;;;;;;;5013624;28;20034;-69
2021/12/10 14:19:31;;;;;;;2.00;0.70;;;;;;;;;;5015054;28;20026;-61
2021/12/10 14:21:58;;;;;;;3.65;0.80;;;;;;;;;;5014030;28;20104;-61
2021/12/10 14:24:33;;;;;;;0.98;0.55;;;;;;;;;;5014921;28;20021;-63
2021/12/10 14:27:08;;;;;;;3.05;1.02;;;;;;;;;;5014151;28;20029;-53
2021/12/10 14:29:34;;;;;;;2.55;1.13;;;;;;;;;;5013691;28;20030;-62
2021/12/10 14:32:00;;;;;;;2.25;0.90;;;;;;;;;;5013495;28;20033;-60
2021/12/10 14:34:26;;;;;;;1.23;0.65;;;;;;;;;;5014159;28;20105;-62
2021/12/10 14:36:58;;;;;;;2.03;0.80;;;;;;;;;;5014224;28;20033;-67
2021/12/10 14:39:24;;;;;;;;;;;;;;;;;;5015543;28;20030;-64
2021/12/10 14:41:54;;;;;;;3.50;1.17;;;;;;;;;;5014935;28;20332;-62
2021/12/10 14:44:23;;;;;;;3.45;1.30;;;;;;;;;;5013682;28;20026;-61
2021/12/10 14:47:15;;;;;;;2.72;1.17;;;;;;;;;;5014205;28;20443;-61
2021/12/10 14:49:43;;;;;;;2.47;1.00;;;;;;;;;;5012501;28;20487;-62
2021/12/10 14:52:12;;;;;;;2.40;0.80;;;;;;;;;;5004260;28;20164;-57
2021/12/10 14:54:56;;;;;;;3.28;1.10;;;;;;;;;;5010429;28;20045;-61
2021/12/10 14:57:41;;;;;;;3.70;1.17;;;;;;;;;;5013997;28;20096;-57
2021/12/10 15:00:07;;;;;;;3.78;1.45;;;;;;;;;;5013940;28;20026;-64
2021/12/10 15:02:35;;;;;;;2.97;1.02;;;;;;;;;;5014428;28;20045;-66
2021/12/10 15:05:06;;;;;;;4.03;0.93;;;;;;;;;;5013706;28;20072;-64
2021/12/10 15:07:47;;;;;;;8.40;1.80;;;;;;;;;;4994983;28;20030;-62
2021/12/10 15:10:14;;;;;;;1.98;0.98;;;;;;;;;;5005741;28;20060;-62
2021/12/10 15:12:50;;;;;;;3.72;1.15;;;;;;;;;;5013063;28;20061;-64
2021/12/10 15:15:18;;;;;;;9.95;1.45;;;;;;;;;;5013543;28;20026;-60